createdAt,value
2018-02-11T00:00:13.731Z,1000.79
2018-02-11T00:00:53.444Z,1000.77
2018-02-11T00:01:30.951Z,1000.76
2018-02-11T00:02:08.062Z,1000.77
2018-02-11T00:02:46.375Z,1000.71
2018-02-11T00:03:21.655Z,1000.70
2018-02-11T00:03:57.166Z,1000.73
2018-02-11T00:04:32.946Z,1000.73
2018-02-11T00:05:08.360Z,1000.69
2018-02-11T00:05:45.745Z,1000.67
2018-02-11T00:06:22.056Z,1000.72
2018-02-11T00:06:57.278Z,1000.62
2018-02-11T00:07:32.489Z,1000.57
2018-02-11T00:08:07.684Z,1000.64
2018-02-11T00:08:43.296Z,1000.60
2018-02-11T00:09:18.512Z,1000.61
2018-02-11T00:09:54.100Z,1000.56
2018-02-11T00:10:30.515Z,1000.53
2018-02-11T00:11:07.096Z,1000.52
2018-02-11T00:11:43.018Z,1000.51
2018-02-11T00:12:20.936Z,1000.48
2018-02-11T00:12:56.245Z,1000.47
2018-02-11T00:13:31.434Z,1000.50
2018-02-11T00:14:06.846Z,1000.47
2018-02-11T00:14:42.421Z,1000.45
2018-02-11T00:15:17.974Z,1000.39
2018-02-11T00:15:53.388Z,1000.39
2018-02-11T00:16:28.485Z,1000.44
2018-02-11T00:17:03.812Z,1000.38
2018-02-11T00:17:39.239Z,1000.43
2018-02-11T00:18:14.553Z,1000.41
2018-02-11T00:18:50.141Z,1000.40
2018-02-11T00:19:25.364Z,1000.41
2018-02-11T00:20:00.659Z,1000.41
2018-02-11T00:20:36.884Z,1000.36
2018-02-11T00:21:12.204Z,1000.40
2018-02-11T00:21:47.496Z,1000.35
2018-02-11T00:22:23.010Z,1000.35
2018-02-11T00:22:58.547Z,1000.38
2018-02-11T00:23:34.069Z,1000.31
2018-02-11T00:24:09.276Z,1000.29
2018-02-11T00:24:46.607Z,1000.28
2018-02-11T00:25:21.804Z,1000.33
2018-02-11T00:25:57.238Z,1000.27
2018-02-11T00:26:32.432Z,1000.24
2018-02-11T00:27:07.877Z,1000.28
2018-02-11T00:27:43.007Z,1000.24
2018-02-11T00:28:18.232Z,1000.17
2018-02-11T00:28:53.963Z,1000.15
2018-02-11T00:29:29.257Z,1000.11
2018-02-11T00:30:04.813Z,1000.10
2018-02-11T00:30:42.115Z,1000.06
2018-02-11T00:31:17.535Z,1000.09
2018-02-11T00:31:54.446Z,1000.03
2018-02-11T00:32:30.586Z,1000.00
2018-02-11T00:33:05.433Z,1000.01
2018-02-11T00:33:40.888Z,999.99
2018-02-11T00:34:17.424Z,1000.03
2018-02-11T00:34:54.324Z,999.95
2018-02-11T00:35:29.543Z,1000.00
2018-02-11T00:36:05.041Z,999.97
2018-02-11T00:36:42.778Z,999.98
2018-02-11T00:37:18.579Z,999.99
2018-02-11T00:37:53.906Z,999.90
2018-02-11T00:38:29.505Z,999.90
2018-02-11T00:39:04.668Z,999.84
2018-02-11T00:39:40.094Z,999.88
2018-02-11T00:40:15.390Z,999.89
2018-02-11T00:40:55.920Z,999.91
2018-02-11T00:41:31.220Z,999.89
2018-02-11T00:42:06.751Z,999.90
2018-02-11T00:42:43.452Z,999.93
2018-02-11T00:43:18.779Z,999.87
2018-02-11T00:43:54.080Z,999.84
2018-02-11T00:44:29.455Z,999.83
2018-02-11T00:45:04.883Z,999.88
2018-02-11T00:45:44.187Z,999.83
2018-02-11T00:46:19.827Z,999.89
2018-02-11T00:46:55.236Z,999.85
2018-02-11T00:47:30.259Z,999.78
2018-02-11T00:48:05.863Z,999.82
2018-02-11T00:48:41.188Z,999.82
2018-02-11T00:49:16.284Z,999.79
2018-02-11T00:49:51.643Z,999.73
2018-02-11T00:50:26.968Z,999.82
2018-02-11T00:51:02.168Z,999.80
2018-02-11T00:51:37.292Z,999.67
2018-02-11T00:52:12.686Z,999.77
2018-02-11T00:52:48.023Z,999.64
2018-02-11T00:53:23.319Z,999.67
2018-02-11T00:53:58.643Z,999.66
2018-02-11T00:54:33.844Z,999.67
2018-02-11T00:55:09.102Z,999.64
2018-02-11T00:55:46.198Z,999.69
2018-02-11T00:56:21.232Z,999.60
2018-02-11T00:56:56.967Z,999.71
2018-02-11T00:57:32.364Z,999.68
2018-02-11T00:58:07.997Z,999.68
2018-02-11T00:58:43.202Z,999.62
2018-02-11T00:59:18.524Z,999.61
2018-02-11T00:59:53.927Z,999.64
2018-02-11T01:00:29.679Z,999.57
2018-02-11T01:01:04.984Z,999.65
2018-02-11T01:01:40.205Z,999.62
2018-02-11T01:02:15.419Z,999.62
2018-02-11T01:02:50.605Z,999.59
2018-02-11T01:03:25.917Z,999.54
2018-02-11T01:04:01.198Z,999.57
2018-02-11T01:04:36.626Z,999.51
2018-02-11T01:05:11.898Z,999.47
2018-02-11T01:05:50.835Z,999.44
2018-02-11T01:06:26.127Z,999.56
2018-02-11T01:07:01.225Z,999.43
2018-02-11T01:07:37.033Z,999.39
2018-02-11T01:08:12.302Z,999.65
2018-02-11T01:08:48.740Z,999.39
2018-02-11T01:09:24.109Z,999.37
2018-02-11T01:09:59.406Z,999.36
2018-02-11T01:10:34.702Z,999.35
2018-02-11T01:11:10.328Z,999.33
2018-02-11T01:11:47.517Z,999.34
2018-02-11T01:12:23.113Z,999.33
2018-02-11T01:12:58.259Z,999.25
2018-02-11T01:13:33.451Z,999.30
2018-02-11T01:14:08.665Z,999.26
2018-02-11T01:14:44.052Z,999.26
2018-02-11T01:15:19.260Z,999.25
2018-02-11T01:15:55.551Z,999.13
2018-02-11T01:16:30.995Z,999.16
2018-02-11T01:17:06.270Z,999.14
2018-02-11T01:17:41.772Z,999.18
2018-02-11T01:18:17.071Z,999.14
2018-02-11T01:18:52.788Z,999.15
2018-02-11T01:19:28.164Z,999.15
2018-02-11T01:20:03.894Z,999.07
2018-02-11T01:20:40.614Z,999.11
2018-02-11T01:21:16.011Z,999.09
2018-02-11T01:21:51.453Z,999.05
2018-02-11T01:22:26.734Z,999.02
2018-02-11T01:23:01.939Z,999.01
2018-02-11T01:23:37.618Z,999.13
2018-02-11T01:24:12.938Z,999.02
2018-02-11T01:24:48.404Z,998.97
2018-02-11T01:25:23.614Z,998.99
2018-02-11T01:26:00.323Z,998.94
2018-02-11T01:26:36.319Z,998.93
2018-02-11T01:27:11.660Z,998.96
2018-02-11T01:27:47.462Z,998.89
2018-02-11T01:28:22.575Z,998.85
2018-02-11T01:28:57.746Z,999.03
2018-02-11T01:29:33.058Z,998.85
2018-02-11T01:30:08.541Z,998.85
2018-02-11T01:30:49.741Z,998.90
2018-02-11T01:31:25.061Z,998.88
2018-02-11T01:32:00.340Z,998.82
2018-02-11T01:32:35.866Z,998.87
2018-02-11T01:33:11.253Z,998.83
2018-02-11T01:33:49.962Z,998.76
2018-02-11T01:34:27.643Z,998.81
2018-02-11T01:35:04.673Z,998.73
2018-02-11T01:35:40.801Z,998.78
2018-02-11T01:36:16.395Z,998.71
2018-02-11T01:36:52.714Z,998.75
2018-02-11T01:37:27.996Z,998.68
2018-02-11T01:38:03.241Z,998.71
2018-02-11T01:38:40.326Z,998.75
2018-02-11T01:39:15.546Z,998.79
2018-02-11T01:39:51.148Z,998.79
2018-02-11T01:40:26.444Z,998.70
2018-02-11T01:41:01.639Z,998.63
2018-02-11T01:41:37.139Z,998.63
2018-02-11T01:42:12.616Z,998.66
2018-02-11T01:42:49.138Z,998.64
2018-02-11T01:43:24.383Z,998.67
2018-02-11T01:43:59.463Z,998.58
2018-02-11T01:44:36.390Z,998.64
2018-02-11T01:45:13.981Z,998.54
2018-02-11T01:45:49.696Z,998.54
2018-02-11T01:46:25.087Z,998.50
2018-02-11T01:47:00.198Z,998.54
2018-02-11T01:47:35.515Z,998.50
2018-02-11T01:48:10.808Z,998.55
2018-02-11T01:48:47.563Z,998.50
2018-02-11T01:49:22.862Z,998.54
2018-02-11T01:49:58.178Z,998.44
2018-02-11T01:50:33.262Z,998.48
2018-02-11T01:51:09.476Z,998.40
2018-02-11T01:51:45.045Z,998.40
2018-02-11T01:52:20.656Z,998.40
2018-02-11T01:52:55.977Z,998.40
2018-02-11T01:53:31.474Z,998.35
2018-02-11T01:54:07.409Z,998.34
2018-02-11T01:54:43.812Z,998.24
2018-02-11T01:55:19.224Z,998.32
2018-02-11T01:55:54.607Z,998.31
2018-02-11T01:56:29.923Z,998.40
2018-02-11T01:57:04.921Z,998.24
2018-02-11T01:57:40.248Z,998.33
2018-02-11T01:58:15.542Z,998.31
2018-02-11T01:58:51.161Z,998.22
2018-02-11T01:59:26.479Z,998.19
2018-02-11T02:00:02.204Z,998.18
2018-02-11T02:00:40.337Z,998.20
2018-02-11T02:01:18.818Z,998.11
2018-02-11T02:01:54.417Z,998.20
2018-02-11T02:02:29.600Z,998.21
2018-02-11T02:03:06.035Z,998.08
2018-02-11T02:03:41.203Z,998.15
2018-02-11T02:04:16.531Z,998.06
2018-02-11T02:04:52.164Z,998.02
2018-02-11T02:05:29.273Z,998.11
2018-02-11T02:06:04.916Z,998.02
2018-02-11T02:06:42.811Z,998.06
2018-02-11T02:07:19.831Z,998.07
2018-02-11T02:07:56.818Z,997.99
2018-02-11T02:08:32.334Z,997.95
2018-02-11T02:09:07.827Z,997.87
2018-02-11T02:09:43.658Z,997.77
2018-02-11T02:10:18.982Z,997.82
2018-02-11T02:10:56.790Z,997.84
2018-02-11T02:11:32.217Z,997.72
2018-02-11T02:12:07.725Z,997.73
2018-02-11T02:12:43.132Z,997.74
2018-02-11T02:13:18.242Z,997.62
2018-02-11T02:13:53.568Z,997.68
2018-02-11T02:14:28.751Z,997.62
2018-02-11T02:15:03.948Z,997.58
2018-02-11T02:15:40.077Z,997.70
2018-02-11T02:16:15.699Z,997.52
2018-02-11T02:16:51.516Z,997.46
2018-02-11T02:17:26.911Z,997.57
2018-02-11T02:18:02.334Z,997.67
2018-02-11T02:18:38.936Z,997.48
2018-02-11T02:19:14.531Z,997.46
2018-02-11T02:19:49.826Z,997.42
2018-02-11T02:20:24.950Z,997.40
2018-02-11T02:21:03.751Z,997.43
2018-02-11T02:21:39.076Z,997.41
2018-02-11T02:22:14.207Z,997.63
2018-02-11T02:22:49.598Z,997.32
2018-02-11T02:23:24.809Z,997.36
2018-02-11T02:24:00.213Z,997.35
2018-02-11T02:24:35.230Z,997.37
2018-02-11T02:25:10.530Z,997.26
2018-02-11T02:25:45.847Z,997.24
2018-02-11T02:26:21.153Z,997.23
2018-02-11T02:26:56.675Z,997.11
2018-02-11T02:27:31.869Z,997.22
2018-02-11T02:28:07.201Z,997.16
2018-02-11T02:28:44.786Z,997.18
2018-02-11T02:29:20.307Z,997.18
2018-02-11T02:29:55.539Z,997.15
2018-02-11T02:30:31.013Z,997.11
2018-02-11T02:31:06.448Z,997.10
2018-02-11T02:31:41.548Z,997.07
2018-02-11T02:32:16.858Z,997.15
2018-02-11T02:32:52.369Z,997.36
2018-02-11T02:33:27.678Z,997.13
2018-02-11T02:34:03.076Z,997.07
2018-02-11T02:34:39.406Z,997.15
2018-02-11T02:35:15.062Z,997.11
2018-02-11T02:35:50.362Z,997.02
2018-02-11T02:36:25.681Z,997.02
2018-02-11T02:37:01.185Z,997.00
2018-02-11T02:37:36.699Z,996.98
2018-02-11T02:38:11.899Z,997.00
2018-02-11T02:38:47.009Z,996.94
2018-02-11T02:39:22.199Z,996.87
2018-02-11T02:39:57.918Z,996.93
2018-02-11T02:40:33.109Z,996.86
2018-02-11T02:41:08.424Z,996.95
2018-02-11T02:41:43.663Z,996.83
2018-02-11T02:42:18.943Z,996.82
2018-02-11T02:42:57.058Z,996.74
2018-02-11T02:43:32.433Z,996.76
2018-02-11T02:44:07.940Z,996.72
2018-02-11T02:44:43.516Z,996.72
2018-02-11T02:45:19.645Z,996.69
2018-02-11T02:45:54.919Z,996.63
2018-02-11T02:46:30.144Z,996.68
2018-02-11T02:47:05.544Z,996.68
2018-02-11T02:47:41.137Z,996.67
2018-02-11T02:48:16.649Z,996.59
2018-02-11T02:48:52.224Z,996.56
2018-02-11T02:49:27.340Z,996.49
2018-02-11T02:50:02.508Z,996.45
2018-02-11T02:50:40.457Z,996.55
2018-02-11T02:51:17.751Z,996.62
2018-02-11T02:51:53.263Z,996.50
2018-02-11T02:52:28.645Z,996.40
2018-02-11T02:53:04.263Z,996.30
2018-02-11T02:53:39.784Z,996.28
2018-02-11T02:54:14.870Z,996.40
2018-02-11T02:54:50.396Z,996.66
2018-02-11T02:55:25.663Z,996.34
2018-02-11T02:56:00.965Z,996.21
2018-02-11T02:56:36.465Z,996.17
2018-02-11T02:57:11.965Z,996.14
2018-02-11T02:57:47.660Z,996.17
2018-02-11T02:58:22.936Z,996.16
2018-02-11T02:58:58.241Z,996.16
2018-02-11T02:59:33.410Z,996.47
2018-02-11T03:00:08.512Z,996.27
2018-02-11T03:00:48.078Z,996.18
2018-02-11T03:01:23.378Z,996.00
2018-02-11T03:01:59.277Z,996.14
2018-02-11T03:02:34.675Z,996.02
2018-02-11T03:03:09.947Z,996.06
2018-02-11T03:03:45.650Z,995.91
2018-02-11T03:04:20.763Z,995.88
2018-02-11T03:04:56.147Z,995.83
2018-02-11T03:05:31.381Z,995.91
2018-02-11T03:06:06.475Z,995.86
2018-02-11T03:06:41.911Z,995.70
2018-02-11T03:07:17.401Z,995.79
2018-02-11T03:07:53.405Z,995.70
2018-02-11T03:08:28.789Z,995.65
2018-02-11T03:09:04.099Z,995.68
2018-02-11T03:09:39.686Z,995.60
2018-02-11T03:10:15.098Z,995.59
2018-02-11T03:10:50.521Z,995.55
2018-02-11T03:11:26.094Z,995.49
2018-02-11T03:12:01.623Z,995.75
2018-02-11T03:12:36.908Z,995.46
2018-02-11T03:13:12.719Z,995.33
2018-02-11T03:13:48.403Z,995.38
2018-02-11T03:14:23.610Z,995.34
2018-02-11T03:14:58.679Z,995.36
2018-02-11T03:15:33.979Z,995.38
2018-02-11T03:16:09.355Z,995.41
2018-02-11T03:16:44.488Z,995.45
2018-02-11T03:17:20.004Z,995.42
2018-02-11T03:17:55.186Z,995.42
2018-02-11T03:18:30.287Z,995.28
2018-02-11T03:19:05.875Z,995.22
2018-02-11T03:19:41.274Z,995.21
2018-02-11T03:20:16.466Z,995.22
2018-02-11T03:20:51.574Z,995.13
2018-02-11T03:21:27.058Z,995.17
2018-02-11T03:22:02.408Z,995.21
2018-02-11T03:22:37.681Z,995.15
2018-02-11T03:23:12.911Z,995.26
2018-02-11T03:23:48.426Z,995.21
2018-02-11T03:24:24.313Z,995.11
2018-02-11T03:24:59.524Z,995.13
2018-02-11T03:25:34.699Z,995.11
2018-02-11T03:26:10.928Z,995.08
2018-02-11T03:26:46.237Z,995.05
2018-02-11T03:27:21.664Z,995.00
2018-02-11T03:28:00.743Z,995.07
2018-02-11T03:28:36.211Z,994.95
2018-02-11T03:29:11.592Z,995.02
2018-02-11T03:29:48.288Z,994.98
2018-02-11T03:30:23.704Z,994.93
2018-02-11T03:30:58.978Z,994.99
2018-02-11T03:31:34.466Z,995.00
2018-02-11T03:32:10.481Z,994.95
2018-02-11T03:32:45.899Z,994.88
2018-02-11T03:33:21.107Z,994.86
2018-02-11T03:33:57.011Z,994.99
2018-02-11T03:34:32.449Z,994.93
2018-02-11T03:35:07.815Z,994.88
2018-02-11T03:35:43.448Z,994.84
2018-02-11T03:36:18.935Z,994.83
2018-02-11T03:36:54.280Z,994.83
2018-02-11T03:37:30.952Z,994.90
2018-02-11T03:38:06.250Z,994.79
2018-02-11T03:38:42.338Z,994.77
2018-02-11T03:39:18.048Z,994.77
2018-02-11T03:39:53.041Z,994.71
2018-02-11T03:40:28.243Z,994.70
2018-02-11T03:41:03.666Z,994.75
2018-02-11T03:41:38.867Z,994.80
2018-02-11T03:42:14.192Z,994.68
2018-02-11T03:42:49.382Z,994.67
2018-02-11T03:43:24.997Z,994.75
2018-02-11T03:44:00.107Z,994.61
2018-02-11T03:44:35.521Z,994.62
2018-02-11T03:45:11.118Z,994.63
2018-02-11T03:45:46.731Z,994.60
2018-02-11T03:46:22.103Z,994.64
2018-02-11T03:46:57.332Z,994.59
2018-02-11T03:47:33.040Z,994.54
2018-02-11T03:48:09.114Z,994.58
2018-02-11T03:48:44.711Z,994.55
2018-02-11T03:49:20.002Z,994.57
2018-02-11T03:49:55.225Z,994.47
2018-02-11T03:50:30.622Z,994.59
2018-02-11T03:51:06.640Z,994.47
2018-02-11T03:51:42.140Z,994.45
2018-02-11T03:52:17.383Z,994.53
2018-02-11T03:52:52.611Z,994.41
2018-02-11T03:53:28.010Z,994.46
2018-02-11T03:54:03.131Z,994.39
2018-02-11T03:54:38.831Z,994.40
2018-02-11T03:55:14.556Z,994.48
2018-02-11T03:55:50.353Z,994.40
2018-02-11T03:56:25.779Z,994.39
2018-02-11T03:57:01.160Z,994.59
2018-02-11T03:57:36.891Z,994.38
2018-02-11T03:58:12.073Z,994.35
2018-02-11T03:58:47.774Z,994.33
2018-02-11T03:59:23.289Z,994.35
2018-02-11T03:59:58.660Z,994.33
2018-02-11T04:00:33.964Z,994.36
2018-02-11T04:01:09.150Z,994.59
2018-02-11T04:01:44.852Z,994.32
2018-02-11T04:02:20.152Z,994.32
2018-02-11T04:02:55.555Z,994.32
2018-02-11T04:03:30.626Z,994.32
2018-02-11T04:04:05.828Z,994.30
2018-02-11T04:04:41.112Z,994.35
2018-02-11T04:05:16.518Z,994.34
2018-02-11T04:05:51.823Z,994.28
2018-02-11T04:06:27.200Z,994.31
2018-02-11T04:07:02.501Z,994.33
2018-02-11T04:07:38.098Z,994.33
2018-02-11T04:08:13.499Z,994.30
2018-02-11T04:08:48.777Z,994.23
2018-02-11T04:09:23.979Z,994.28
2018-02-11T04:09:59.552Z,994.25
2018-02-11T04:10:34.864Z,994.30
2018-02-11T04:11:10.239Z,994.33
2018-02-11T04:11:45.242Z,994.20
2018-02-11T04:12:20.772Z,994.27
2018-02-11T04:12:56.148Z,994.25
2018-02-11T04:13:31.465Z,994.16
2018-02-11T04:14:06.735Z,994.17
2018-02-11T04:14:42.150Z,994.32
2018-02-11T04:15:17.347Z,994.18
2018-02-11T04:15:55.872Z,994.27
2018-02-11T04:16:31.054Z,994.12
2018-02-11T04:17:06.664Z,994.03
2018-02-11T04:17:42.417Z,994.19
2018-02-11T04:18:18.116Z,994.11
2018-02-11T04:18:53.327Z,994.01
2018-02-11T04:19:28.702Z,994.07
2018-02-11T04:20:04.210Z,994.04
2018-02-11T04:20:39.796Z,993.95
2018-02-11T04:21:15.410Z,993.94
2018-02-11T04:21:50.705Z,993.96
2018-02-11T04:22:25.952Z,993.94
2018-02-11T04:23:01.358Z,993.95
2018-02-11T04:23:36.637Z,993.94
2018-02-11T04:24:12.259Z,993.99
2018-02-11T04:24:47.740Z,993.86
2018-02-11T04:25:22.946Z,993.94
2018-02-11T04:25:58.252Z,993.97
2018-02-11T04:26:33.464Z,993.91
2018-02-11T04:27:08.868Z,993.82
2018-02-11T04:27:44.000Z,993.84
2018-02-11T04:28:19.283Z,993.91
2018-02-11T04:28:54.589Z,993.81
2018-02-11T04:29:30.105Z,993.81
2018-02-11T04:30:05.478Z,993.83
2018-02-11T04:30:41.778Z,993.80
2018-02-11T04:31:17.081Z,993.90
2018-02-11T04:31:52.283Z,993.82
2018-02-11T04:32:27.495Z,993.79
2018-02-11T04:33:02.907Z,993.77
2018-02-11T04:33:38.114Z,993.75
2018-02-11T04:34:13.332Z,993.72
2018-02-11T04:34:48.904Z,993.79
2018-02-11T04:35:24.204Z,993.80
2018-02-11T04:35:59.532Z,993.80
2018-02-11T04:36:35.138Z,993.69
2018-02-11T04:37:10.752Z,993.70
2018-02-11T04:37:46.265Z,993.70
2018-02-11T04:38:21.880Z,993.61
2018-02-11T04:38:56.976Z,993.64
2018-02-11T04:39:32.290Z,993.60
2018-02-11T04:40:07.579Z,993.63
2018-02-11T04:40:43.283Z,993.62
2018-02-11T04:41:18.557Z,993.53
2018-02-11T04:41:54.196Z,993.50
2018-02-11T04:42:29.493Z,993.47
2018-02-11T04:43:05.633Z,993.49
2018-02-11T04:43:40.952Z,993.56
2018-02-11T04:44:16.340Z,993.46
2018-02-11T04:44:51.870Z,993.49
2018-02-11T04:45:26.865Z,993.49
2018-02-11T04:46:02.979Z,993.43
2018-02-11T04:46:38.498Z,993.44
2018-02-11T04:47:13.770Z,993.51
2018-02-11T04:47:49.119Z,993.44
2018-02-11T04:48:24.414Z,993.40
2018-02-11T04:48:59.637Z,993.39
2018-02-11T04:49:34.825Z,993.37
2018-02-11T04:50:10.147Z,993.33
2018-02-11T04:50:47.061Z,993.27
2018-02-11T04:51:22.262Z,993.27
2018-02-11T04:51:57.363Z,993.28
2018-02-11T04:52:32.783Z,993.36
2018-02-11T04:53:07.893Z,993.25
2018-02-11T04:53:43.207Z,993.28
2018-02-11T04:54:18.513Z,993.19
2018-02-11T04:54:53.905Z,993.25
2018-02-11T04:55:29.211Z,993.18
2018-02-11T04:56:04.888Z,993.16
2018-02-11T04:56:40.121Z,993.18
2018-02-11T04:57:15.409Z,993.12
2018-02-11T04:57:50.651Z,993.12
2018-02-11T04:58:25.940Z,993.21
2018-02-11T04:59:01.342Z,993.09
2018-02-11T04:59:36.448Z,993.15
2018-02-11T05:00:11.925Z,993.01
2018-02-11T05:00:51.230Z,993.12
2018-02-11T05:01:26.620Z,993.09
2018-02-11T05:02:02.021Z,993.07
2018-02-11T05:02:38.399Z,993.10
2018-02-11T05:03:15.238Z,993.01
2018-02-11T05:03:50.530Z,993.02
2018-02-11T05:04:26.041Z,993.14
2018-02-11T05:05:01.143Z,992.92
2018-02-11T05:05:37.465Z,992.97
2018-02-11T05:06:12.762Z,992.91
2018-02-11T05:06:47.989Z,993.04
2018-02-11T05:07:23.502Z,992.88
2018-02-11T05:07:58.826Z,992.98
2018-02-11T05:08:34.436Z,992.87
2018-02-11T05:09:10.036Z,992.97
2018-02-11T05:09:45.628Z,992.83
2018-02-11T05:10:21.124Z,992.86
2018-02-11T05:10:59.236Z,992.91
2018-02-11T05:11:34.835Z,992.77
2018-02-11T05:12:10.233Z,992.82
2018-02-11T05:12:45.564Z,992.66
2018-02-11T05:13:20.865Z,992.77
2018-02-11T05:13:56.172Z,992.67
2018-02-11T05:14:31.354Z,992.60
2018-02-11T05:15:06.665Z,992.73
2018-02-11T05:15:42.447Z,992.64
2018-02-11T05:16:17.756Z,992.65
2018-02-11T05:16:53.461Z,992.63
2018-02-11T05:17:29.078Z,992.58
2018-02-11T05:18:04.620Z,992.52
2018-02-11T05:18:40.118Z,992.52
2018-02-11T05:19:15.234Z,992.56
2018-02-11T05:19:50.730Z,992.57
2018-02-11T05:20:26.232Z,992.60
2018-02-11T05:21:01.723Z,992.58
2018-02-11T05:21:37.630Z,992.49
2018-02-11T05:22:12.919Z,992.49
2018-02-11T05:22:48.632Z,992.45
2018-02-11T05:23:23.950Z,992.42
2018-02-11T05:23:59.251Z,992.47
2018-02-11T05:24:34.489Z,992.45
2018-02-11T05:25:13.077Z,992.44
2018-02-11T05:25:48.378Z,992.39
2018-02-11T05:26:23.948Z,992.44
2018-02-11T05:26:58.975Z,992.40
2018-02-11T05:27:34.173Z,992.57
2018-02-11T05:28:09.529Z,992.50
2018-02-11T05:28:44.927Z,992.46
2018-02-11T05:29:20.126Z,992.47
2018-02-11T05:29:55.432Z,992.46
2018-02-11T05:30:30.815Z,992.52
2018-02-11T05:31:06.148Z,992.58
2018-02-11T05:31:41.435Z,992.49
2018-02-11T05:32:16.847Z,992.44
2018-02-11T05:32:52.228Z,992.45
2018-02-11T05:33:27.981Z,992.44
2018-02-11T05:34:03.155Z,992.41
2018-02-11T05:34:38.384Z,992.38
2018-02-11T05:35:13.979Z,992.30
2018-02-11T05:35:50.794Z,992.42
2018-02-11T05:36:26.026Z,992.37
2018-02-11T05:37:01.513Z,992.37
2018-02-11T05:37:36.845Z,992.32
2018-02-11T05:38:12.235Z,992.31
2018-02-11T05:38:47.480Z,992.39
2018-02-11T05:39:22.765Z,992.25
2018-02-11T05:39:58.187Z,992.33
2018-02-11T05:40:33.377Z,992.24
2018-02-11T05:41:08.899Z,992.41
2018-02-11T05:41:44.284Z,992.31
2018-02-11T05:42:19.709Z,992.20
2018-02-11T05:42:55.027Z,992.21
2018-02-11T05:43:30.252Z,992.16
2018-02-11T05:44:05.654Z,992.34
2018-02-11T05:44:40.928Z,992.16
2018-02-11T05:45:18.237Z,992.13
2018-02-11T05:45:53.717Z,992.11
2018-02-11T05:46:29.120Z,992.02
2018-02-11T05:47:04.723Z,992.01
2018-02-11T05:47:40.143Z,992.13
2018-02-11T05:48:15.236Z,992.01
2018-02-11T05:48:52.173Z,992.21
2018-02-11T05:49:27.482Z,992.21
2018-02-11T05:50:02.592Z,992.13
2018-02-11T05:50:41.349Z,992.21
2018-02-11T05:51:16.592Z,992.08
2018-02-11T05:51:51.909Z,992.10
2018-02-11T05:52:27.082Z,992.02
2018-02-11T05:53:02.409Z,991.95
2018-02-11T05:53:39.031Z,992.02
2018-02-11T05:54:14.248Z,991.95
2018-02-11T05:54:49.659Z,991.95
2018-02-11T05:55:24.840Z,991.86
2018-02-11T05:56:00.052Z,991.93
2018-02-11T05:56:35.336Z,992.04
2018-02-11T05:57:10.648Z,991.89
2018-02-11T05:57:46.742Z,992.02
2018-02-11T05:58:22.196Z,991.95
2018-02-11T05:58:57.523Z,991.88
2018-02-11T05:59:32.850Z,991.87
2018-02-11T06:00:08.167Z,991.79
2018-02-11T06:00:46.658Z,991.84
2018-02-11T06:01:22.074Z,991.89
2018-02-11T06:01:57.373Z,991.95
2018-02-11T06:02:32.689Z,991.87
2018-02-11T06:03:07.888Z,991.83
2018-02-11T06:03:43.334Z,991.79
2018-02-11T06:04:18.631Z,991.79
2018-02-11T06:04:54.058Z,991.79
2018-02-11T06:05:29.360Z,991.78
2018-02-11T06:06:04.891Z,991.74
2018-02-11T06:06:41.322Z,991.78
2018-02-11T06:07:16.614Z,991.79
2018-02-11T06:07:52.237Z,991.65
2018-02-11T06:08:27.537Z,991.73
2018-02-11T06:09:02.881Z,991.67
2018-02-11T06:09:38.384Z,991.72
2018-02-11T06:10:13.811Z,991.70
2018-02-11T06:10:50.510Z,991.76
2018-02-11T06:11:25.831Z,991.66
2018-02-11T06:12:01.258Z,991.70
2018-02-11T06:12:36.461Z,991.65
2018-02-11T06:13:11.785Z,991.59
2018-02-11T06:13:47.115Z,991.60
2018-02-11T06:14:22.336Z,991.57
2018-02-11T06:14:57.742Z,991.75
2018-02-11T06:15:33.655Z,991.73
2018-02-11T06:16:08.951Z,991.65
2018-02-11T06:16:44.174Z,991.64
2018-02-11T06:17:19.576Z,991.61
2018-02-11T06:17:54.999Z,991.66
2018-02-11T06:18:30.229Z,991.67
2018-02-11T06:19:05.457Z,991.64
2018-02-11T06:19:40.775Z,991.59
2018-02-11T06:20:16.073Z,991.59
2018-02-11T06:20:51.997Z,991.55
2018-02-11T06:21:27.195Z,991.61
2018-02-11T06:22:02.526Z,991.65
2018-02-11T06:22:37.831Z,991.81
2018-02-11T06:23:13.056Z,991.66
2018-02-11T06:23:48.246Z,991.65
2018-02-11T06:24:23.594Z,991.67
2018-02-11T06:24:58.921Z,991.65
2018-02-11T06:25:34.827Z,991.65
2018-02-11T06:26:11.746Z,991.62
2018-02-11T06:26:47.137Z,991.51
2018-02-11T06:27:22.558Z,991.67
2018-02-11T06:27:57.953Z,991.51
2018-02-11T06:28:33.376Z,991.57
2018-02-11T06:29:08.701Z,991.51
2018-02-11T06:29:44.228Z,991.46
2018-02-11T06:30:19.730Z,991.65
2018-02-11T06:30:55.160Z,991.48
2018-02-11T06:31:30.592Z,991.41
2018-02-11T06:32:05.891Z,991.37
2018-02-11T06:32:41.015Z,991.49
2018-02-11T06:33:16.011Z,991.47
2018-02-11T06:33:51.235Z,991.41
2018-02-11T06:34:26.661Z,991.43
2018-02-11T06:35:02.190Z,991.47
2018-02-11T06:35:37.992Z,991.46
2018-02-11T06:36:13.420Z,991.66
2018-02-11T06:36:48.842Z,991.34
2018-02-11T06:37:24.049Z,991.47
2018-02-11T06:37:59.682Z,991.41
2018-02-11T06:38:34.886Z,991.63
2018-02-11T06:39:10.336Z,991.38
2018-02-11T06:39:45.738Z,991.37
2018-02-11T06:40:21.255Z,991.46
2018-02-11T06:40:56.709Z,991.49
2018-02-11T06:41:32.237Z,991.48
2018-02-11T06:42:07.736Z,991.43
2018-02-11T06:42:43.963Z,991.47
2018-02-11T06:43:19.487Z,991.59
2018-02-11T06:43:54.891Z,991.46
2018-02-11T06:44:30.636Z,991.47
2018-02-11T06:45:06.349Z,991.45
2018-02-11T06:45:44.776Z,991.59
2018-02-11T06:46:20.373Z,991.50
2018-02-11T06:46:56.003Z,991.51
2018-02-11T06:47:31.397Z,991.50
2018-02-11T06:48:06.622Z,991.49
2018-02-11T06:48:42.146Z,991.58
2018-02-11T06:49:17.378Z,991.59
2018-02-11T06:49:52.518Z,991.67
2018-02-11T06:50:27.814Z,991.52
2018-02-11T06:51:03.041Z,991.70
2018-02-11T06:51:38.545Z,991.75
2018-02-11T06:52:13.771Z,991.61
2018-02-11T06:52:49.368Z,991.64
2018-02-11T06:53:24.785Z,991.62
2018-02-11T06:54:00.092Z,991.60
2018-02-11T06:54:35.143Z,991.66
2018-02-11T06:55:10.394Z,991.69
2018-02-11T06:55:46.637Z,991.66
2018-02-11T06:56:21.680Z,991.80
2018-02-11T06:56:56.989Z,991.64
2018-02-11T06:57:32.426Z,991.63
2018-02-11T06:58:07.722Z,991.65
2018-02-11T06:58:42.847Z,991.67
2018-02-11T06:59:18.178Z,991.77
2018-02-11T06:59:53.595Z,991.65
2018-02-11T07:00:28.894Z,991.64
2018-02-11T07:01:04.111Z,991.69
2018-02-11T07:01:39.542Z,991.67
2018-02-11T07:02:15.039Z,991.67
2018-02-11T07:02:50.268Z,991.76
2018-02-11T07:03:25.269Z,991.84
2018-02-11T07:04:00.494Z,991.76
2018-02-11T07:04:36.021Z,991.92
2018-02-11T07:05:11.236Z,991.76
2018-02-11T07:05:48.142Z,991.84
2018-02-11T07:06:25.657Z,991.73
2018-02-11T07:07:01.257Z,991.71
2018-02-11T07:07:36.581Z,991.84
2018-02-11T07:08:11.877Z,991.74
2018-02-11T07:08:47.590Z,991.79
2018-02-11T07:09:22.942Z,991.82
2018-02-11T07:09:58.642Z,991.74
2018-02-11T07:10:34.067Z,991.78
2018-02-11T07:11:10.065Z,991.73
2018-02-11T07:11:45.417Z,991.76
2018-02-11T07:12:20.617Z,991.86
2018-02-11T07:12:55.964Z,991.87
2018-02-11T07:13:31.095Z,991.76
2018-02-11T07:14:06.415Z,991.83
2018-02-11T07:14:41.866Z,991.83
2018-02-11T07:15:17.355Z,991.84
2018-02-11T07:15:52.782Z,991.79
2018-02-11T07:16:27.981Z,991.77
2018-02-11T07:17:03.205Z,991.75
2018-02-11T07:17:38.403Z,991.79
2018-02-11T07:18:13.925Z,991.78
2018-02-11T07:18:49.164Z,991.75
2018-02-11T07:19:24.864Z,991.71
2018-02-11T07:20:01.088Z,992.08
2018-02-11T07:20:37.823Z,991.74
2018-02-11T07:21:14.364Z,991.78
2018-02-11T07:21:49.749Z,991.80
2018-02-11T07:22:25.388Z,991.92
2018-02-11T07:23:01.781Z,991.94